sensor_id;sensor_type;location;lat;lon;timestamp;pressure;altitude;pressure_sealevel;temperature;humidity
64614;BME280;51025;37.772;-122.432;2023-09-19T00:01:37;100916.37;;;24.20;29.68
64614;BME280;51025;37.772;-122.432;2023-09-19T00:04:05;100916.50;;;24.06;29.53
64614;BME280;51025;37.772;-122.432;2023-09-19T00:06:34;100920.64;;;23.62;29.98
64614;BME280;51025;37.772;-122.432;2023-09-19T00:09:03;100924.00;;;23.34;30.28
64614;BME280;51025;37.772;-122.432;2023-09-19T00:11:31;100916.93;;;23.71;29.99
64614;BME280;51025;37.772;-122.432;2023-09-19T00:13:59;100913.29;;;24.31;29.79
64614;BME280;51025;37.772;-122.432;2023-09-19T00:16:29;100915.99;;;23.61;30.10
64614;BME280;51025;37.772;-122.432;2023-09-19T00:18:58;100916.93;;;23.61;30.09
64614;BME280;51025;37.772;-122.432;2023-09-19T00:21:26;100921.01;;;23.95;30.13
64614;BME280;51025;37.772;-122.432;2023-09-19T00:23:54;100920.01;;;23.69;30.07
64614;BME280;51025;37.772;-122.432;2023-09-19T00:26:23;100916.02;;;23.40;30.33
64614;BME280;51025;37.772;-122.432;2023-09-19T00:28:53;100909.78;;;23.71;30.05
64614;BME280;51025;37.772;-122.432;2023-09-19T00:31:21;100913.31;;;23.44;30.27
64614;BME280;51025;37.772;-122.432;2023-09-19T00:33:50;100903.42;;;23.34;30.38
64614;BME280;51025;37.772;-122.432;2023-09-19T00:36:18;100909.41;;;23.06;30.71
64614;BME280;51025;37.772;-122.432;2023-09-19T00:38:46;100909.89;;;23.80;30.41
64614;BME280;51025;37.772;-122.432;2023-09-19T00:41:15;100908.84;;;23.47;30.44
64614;BME280;51025;37.772;-122.432;2023-09-19T00:43:43;100911.33;;;23.81;30.50
64614;BME280;51025;37.772;-122.432;2023-09-19T00:46:11;100909.90;;;23.82;30.50
64614;BME280;51025;37.772;-122.432;2023-09-19T00:48:41;100909.03;;;23.36;30.68
64614;BME280;51025;37.772;-122.432;2023-09-19T00:51:10;100911.17;;;24.46;30.39
64614;BME280;51025;37.772;-122.432;2023-09-19T00:53:39;100910.54;;;23.40;30.68
64614;BME280;51025;37.772;-122.432;2023-09-19T00:56:08;100912.89;;;23.72;30.41
64614;BME280;51025;37.772;-122.432;2023-09-19T00:58:37;100916.13;;;23.43;30.68
64614;BME280;51025;37.772;-122.432;2023-09-19T01:01:07;100915.50;;;23.13;30.56
64614;BME280;51025;37.772;-122.432;2023-09-19T01:03:35;100913.39;;;23.66;30.40
64614;BME280;51025;37.772;-122.432;2023-09-19T01:06:04;100915.88;;;23.57;30.49
64614;BME280;51025;37.772;-122.432;2023-09-19T01:08:33;100915.17;;;23.50;30.49
64614;BME280;51025;37.772;-122.432;2023-09-19T01:11:09;100926.19;;;23.55;30.45
64614;BME280;51025;37.772;-122.432;2023-09-19T01:13:48;100924.81;;;24.03;30.40
64614;BME280;51025;37.772;-122.432;2023-09-19T01:16:32;100929.16;;;23.54;30.51
64614;BME280;51025;37.772;-122.432;2023-09-19T01:19:22;100933.61;;;23.75;30.05
64614;BME280;51025;37.772;-122.432;2023-09-19T01:21:57;100937.04;;;24.45;30.13
64614;BME280;51025;37.772;-122.432;2023-09-19T01:24:54;100941.15;;;23.85;30.36
64614;BME280;51025;37.772;-122.432;2023-09-19T01:28:14;100944.17;;;23.81;30.48
64614;BME280;51025;37.772;-122.432;2023-09-19T01:30:46;100939.09;;;23.92;30.40
64614;BME280;51025;37.772;-122.432;2023-09-19T01:33:15;100944.43;;;23.68;30.72
64614;BME280;51025;37.772;-122.432;2023-09-19T01:35:44;100938.98;;;23.90;30.54
64614;BME280;51025;37.772;-122.432;2023-09-19T01:38:12;100939.90;;;23.57;30.93
64614;BME280;51025;37.772;-122.432;2023-09-19T01:40:43;100940.78;;;23.26;31.25
64614;BME280;51025;37.772;-122.432;2023-09-19T01:43:20;100943.46;;;23.99;31.29
64614;BME280;51025;37.772;-122.432;2023-09-19T01:45:59;100944.95;;;23.51;31.01
64614;BME280;51025;37.772;-122.432;2023-09-19T01:48:38;100946.01;;;23.03;31.48
64614;BME280;51025;37.772;-122.432;2023-09-19T01:51:10;100948.50;;;23.29;31.20
64614;BME280;51025;37.772;-122.432;2023-09-19T01:53:50;100950.57;;;23.67;31.18
64614;BME280;51025;37.772;-122.432;2023-09-19T01:56:25;100954.29;;;23.85;31.46
64614;BME280;51025;37.772;-122.432;2023-09-19T01:58:59;100952.16;;;23.44;31.42
64614;BME280;51025;37.772;-122.432;2023-09-19T02:01:30;100955.95;;;24.22;31.06
64614;BME280;51025;37.772;-122.432;2023-09-19T02:04:00;100955.01;;;23.49;31.35
64614;BME280;51025;37.772;-122.432;2023-09-19T02:06:28;100956.30;;;23.94;31.39
64614;BME280;51025;37.772;-122.432;2023-09-19T02:08:57;100961.46;;;23.76;31.11
64614;BME280;51025;37.772;-122.432;2023-09-19T02:11:26;100958.08;;;23.28;31.46
64614;BME280;51025;37.772;-122.432;2023-09-19T02:13:55;100963.74;;;23.23;31.96
64614;BME280;51025;37.772;-122.432;2023-09-19T02:16:23;100971.02;;;23.67;31.13
64614;BME280;51025;37.772;-122.432;2023-09-19T02:18:52;100966.34;;;22.97;31.79
64614;BME280;51025;37.772;-122.432;2023-09-19T02:21:20;100972.48;;;23.25;31.58
64614;BME280;51025;37.772;-122.432;2023-09-19T02:23:49;100976.10;;;23.95;31.10
64614;BME280;51025;37.772;-122.432;2023-09-19T02:26:18;100971.95;;;23.41;31.65
64614;BME280;51025;37.772;-122.432;2023-09-19T02:28:46;100977.88;;;23.67;31.49
64614;BME280;51025;37.772;-122.432;2023-09-19T02:31:14;100969.70;;;23.60;31.55
64614;BME280;51025;37.772;-122.432;2023-09-19T02:33:43;100968.08;;;23.42;31.72
64614;BME280;51025;37.772;-122.432;2023-09-19T02:36:12;100970.59;;;23.62;31.53
64614;BME280;51025;37.772;-122.432;2023-09-19T02:38:46;100966.91;;;23.72;31.48
64614;BME280;51025;37.772;-122.432;2023-09-19T02:41:14;100971.92;;;23.85;31.75
64614;BME280;51025;37.772;-122.432;2023-09-19T02:43:43;100973.97;;;23.65;31.55
64614;BME280;51025;37.772;-122.432;2023-09-19T02:46:11;100973.66;;;23.73;31.46
64614;BME280;51025;37.772;-122.432;2023-09-19T02:48:39;100979.11;;;23.59;31.60
64614;BME280;51025;37.772;-122.432;2023-09-19T02:51:07;100980.86;;;23.34;31.56
64614;BME280;51025;37.772;-122.432;2023-09-19T02:53:36;100981.29;;;23.61;31.62
64614;BME280;51025;37.772;-122.432;2023-09-19T02:56:04;100984.76;;;23.52;31.43
64614;BME280;51025;37.772;-122.432;2023-09-19T02:58:33;100983.09;;;23.06;31.83
64614;BME280;51025;37.772;-122.432;2023-09-19T03:01:09;100990.19;;;24.25;31.06
64614;BME280;51025;37.772;-122.432;2023-09-19T03:03:37;100989.50;;;24.14;31.03
64614;BME280;51025;37.772;-122.432;2023-09-19T03:06:05;100992.75;;;24.03;31.02
64614;BME280;51025;37.772;-122.432;2023-09-19T03:08:33;100992.06;;;23.89;31.43
64614;BME280;51025;37.772;-122.432;2023-09-19T03:11:03;100993.58;;;24.25;30.84
64614;BME280;51025;37.772;-122.432;2023-09-19T03:13:32;100993.54;;;24.30;30.81
64614;BME280;51025;37.772;-122.432;2023-09-19T03:16:01;100996.26;;;24.44;30.65
64614;BME280;51025;37.772;-122.432;2023-09-19T03:18:29;101000.48;;;24.19;30.75
64614;BME280;51025;37.772;-122.432;2023-09-19T03:20:58;100999.45;;;24.21;30.75
64614;BME280;51025;37.772;-122.432;2023-09-19T03:23:31;100997.64;;;24.21;30.78
64614;BME280;51025;37.772;-122.432;2023-09-19T03:26:02;100994.53;;;23.64;31.24
64614;BME280;51025;37.772;-122.432;2023-09-19T03:28:34;100996.83;;;24.20;30.55
64614;BME280;51025;37.772;-122.432;2023-09-19T03:31:05;101002.66;;;23.85;30.71
64614;BME280;51025;37.772;-122.432;2023-09-19T03:33:34;101007.42;;;24.28;30.62
64614;BME280;51025;37.772;-122.432;2023-09-19T03:36:03;101011.81;;;23.99;30.45
64614;BME280;51025;37.772;-122.432;2023-09-19T03:38:38;101017.39;;;24.15;30.72
64614;BME280;51025;37.772;-122.432;2023-09-19T03:41:07;101014.35;;;24.34;30.57
64614;BME280;51025;37.772;-122.432;2023-09-19T03:43:36;101011.30;;;24.60;31.17
64614;BME280;51025;37.772;-122.432;2023-09-19T03:46:05;101009.63;;;24.34;32.11
64614;BME280;51025;37.772;-122.432;2023-09-19T03:48:33;101011.44;;;24.39;32.23
64614;BME280;51025;37.772;-122.432;2023-09-19T03:51:02;101012.36;;;24.17;32.97
64614;BME280;51025;37.772;-122.432;2023-09-19T03:53:30;101008.33;;;24.30;33.12
64614;BME280;51025;37.772;-122.432;2023-09-19T03:56:01;101013.85;;;24.58;32.82
64614;BME280;51025;37.772;-122.432;2023-09-19T03:58:29;101011.35;;;23.39;33.52
64614;BME280;51025;37.772;-122.432;2023-09-19T04:00:58;101011.81;;;23.83;33.24
64614;BME280;51025;37.772;-122.432;2023-09-19T04:03:27;101015.22;;;24.13;33.19
64614;BME280;51025;37.772;-122.432;2023-09-19T04:05:56;101016.42;;;23.99;33.32
64614;BME280;51025;37.772;-122.432;2023-09-19T04:08:25;101019.76;;;23.79;32.91
64614;BME280;51025;37.772;-122.432;2023-09-19T04:10:53;101026.82;;;24.48;32.41
64614;BME280;51025;37.772;-122.432;2023-09-19T04:13:21;101024.74;;;24.03;32.39
64614;BME280;51025;37.772;-122.432;2023-09-19T04:15:49;101020.28;;;23.74;32.96
64614;BME280;51025;37.772;-122.432;2023-09-19T04:18:17;101017.06;;;23.56;33.04
64614;BME280;51025;37.772;-122.432;2023-09-19T04:20:49;101013.63;;;24.12;32.77
64614;BME280;51025;37.772;-122.432;2023-09-19T04:23:18;101011.08;;;23.72;33.02
64614;BME280;51025;37.772;-122.432;2023-09-19T04:25:46;101013.76;;;23.78;32.97
64614;BME280;51025;37.772;-122.432;2023-09-19T04:28:16;101013.24;;;23.91;32.80
64614;BME280;51025;37.772;-122.432;2023-09-19T04:30:45;101014.59;;;24.64;32.27
64614;BME280;51025;37.772;-122.432;2023-09-19T04:33:13;101009.12;;;24.24;32.52
64614;BME280;51025;37.772;-122.432;2023-09-19T04:35:41;101005.07;;;24.19;32.67
64614;BME280;51025;37.772;-122.432;2023-09-19T04:38:10;100998.83;;;24.42;32.34
64614;BME280;51025;37.772;-122.432;2023-09-19T04:40:39;100998.21;;;23.76;32.88
64614;BME280;51025;37.772;-122.432;2023-09-19T04:43:08;101004.91;;;24.46;32.18
64614;BME280;51025;37.772;-122.432;2023-09-19T04:45:40;101006.34;;;23.41;32.67
64614;BME280;51025;37.772;-122.432;2023-09-19T04:48:08;101008.11;;;23.06;32.98
64614;BME280;51025;37.772;-122.432;2023-09-19T04:50:36;101007.50;;;23.86;32.36
64614;BME280;51025;37.772;-122.432;2023-09-19T04:53:05;101007.71;;;23.60;32.66
64614;BME280;51025;37.772;-122.432;2023-09-19T04:55:33;101005.05;;;24.04;32.16
64614;BME280;51025;37.772;-122.432;2023-09-19T04:58:02;101005.52;;;23.23;32.54
64614;BME280;51025;37.772;-122.432;2023-09-19T05:00:30;101005.12;;;23.35;32.73
64614;BME280;51025;37.772;-122.432;2023-09-19T05:02:58;101006.71;;;23.75;32.30
64614;BME280;51025;37.772;-122.432;2023-09-19T05:05:26;101005.64;;;23.62;32.33
64614;BME280;51025;37.772;-122.432;2023-09-19T05:07:55;101002.81;;;23.43;32.52
64614;BME280;51025;37.772;-122.432;2023-09-19T05:10:23;101004.06;;;23.39;32.52
64614;BME280;51025;37.772;-122.432;2023-09-19T05:12:54;101005.32;;;23.38;32.39
64614;BME280;51025;37.772;-122.432;2023-09-19T05:15:22;101003.73;;;23.47;32.37
64614;BME280;51025;37.772;-122.432;2023-09-19T05:17:51;101004.67;;;23.29;32.42
64614;BME280;51025;37.772;-122.432;2023-09-19T05:20:19;101003.96;;;23.54;32.17
64614;BME280;51025;37.772;-122.432;2023-09-19T05:22:47;101000.16;;;23.34;32.27
64614;BME280;51025;37.772;-122.432;2023-09-19T05:25:15;101010.43;;;23.24;32.35
64614;BME280;51025;37.772;-122.432;2023-09-19T05:27:44;101010.69;;;23.45;32.12
64614;BME280;51025;37.772;-122.432;2023-09-19T05:30:13;101010.89;;;23.42;32.09
64614;BME280;51025;37.772;-122.432;2023-09-19T05:32:41;101010.69;;;23.57;32.22
64614;BME280;51025;37.772;-122.432;2023-09-19T05:35:10;101008.94;;;23.56;31.90
64614;BME280;51025;37.772;-122.432;2023-09-19T05:37:39;101002.45;;;23.08;32.36
64614;BME280;51025;37.772;-122.432;2023-09-19T05:40:09;100999.91;;;23.49;31.83
64614;BME280;51025;37.772;-122.432;2023-09-19T05:42:37;101002.14;;;23.89;31.46
64614;BME280;51025;37.772;-122.432;2023-09-19T05:45:07;101000.74;;;23.53;31.79
64614;BME280;51025;37.772;-122.432;2023-09-19T05:47:35;101002.75;;;23.12;32.14
64614;BME280;51025;37.772;-122.432;2023-09-19T05:50:04;101008.48;;;22.98;31.94
64614;BME280;51025;37.772;-122.432;2023-09-19T05:52:32;101010.64;;;23.56;32.13
64614;BME280;51025;37.772;-122.432;2023-09-19T05:55:00;101010.32;;;23.70;31.64
64614;BME280;51025;37.772;-122.432;2023-09-19T05:57:29;101014.38;;;23.09;32.18
64614;BME280;51025;37.772;-122.432;2023-09-19T05:59:57;101014.42;;;23.90;31.42
64614;BME280;51025;37.772;-122.432;2023-09-19T06:02:26;101018.43;;;23.61;31.59
64614;BME280;51025;37.772;-122.432;2023-09-19T06:04:54;101020.81;;;23.47;31.65
64614;BME280;51025;37.772;-122.432;2023-09-19T06:07:22;101024.57;;;23.49;31.66
64614;BME280;51025;37.772;-122.432;2023-09-19T06:09:50;101025.00;;;23.90;31.26
64614;BME280;51025;37.772;-122.432;2023-09-19T06:12:19;101027.04;;;23.48;31.55
64614;BME280;51025;37.772;-122.432;2023-09-19T06:14:48;101028.95;;;23.26;31.82
64614;BME280;51025;37.772;-122.432;2023-09-19T06:17:16;101031.88;;;24.07;31.38
64614;BME280;51025;37.772;-122.432;2023-09-19T06:19:45;101035.69;;;23.58;31.53
64614;BME280;51025;37.772;-122.432;2023-09-19T06:22:15;101039.85;;;23.05;31.95
64614;BME280;51025;37.772;-122.432;2023-09-19T06:24:44;101041.14;;;23.46;31.52
64614;BME280;51025;37.772;-122.432;2023-09-19T06:27:13;101038.60;;;23.16;31.69
64614;BME280;51025;37.772;-122.432;2023-09-19T06:29:42;101039.76;;;24.09;31.64
64614;BME280;51025;37.772;-122.432;2023-09-19T06:32:10;101035.30;;;23.86;31.03
64614;BME280;51025;37.772;-122.432;2023-09-19T06:34:43;101032.25;;;23.99;30.83
64614;BME280;51025;37.772;-122.432;2023-09-19T06:37:11;101037.94;;;23.25;31.51
64614;BME280;51025;37.772;-122.432;2023-09-19T06:39:40;101040.23;;;23.39;31.36
64614;BME280;51025;37.772;-122.432;2023-09-19T06:42:08;101042.06;;;23.06;31.66
64614;BME280;51025;37.772;-122.432;2023-09-19T06:44:37;101045.30;;;23.33;31.35
64614;BME280;51025;37.772;-122.432;2023-09-19T06:47:05;101048.13;;;23.07;31.65
64614;BME280;51025;37.772;-122.432;2023-09-19T06:49:33;101045.83;;;23.16;31.78
64614;BME280;51025;37.772;-122.432;2023-09-19T06:52:03;101046.60;;;23.57;31.42
64614;BME280;51025;37.772;-122.432;2023-09-19T06:54:31;101047.46;;;23.97;31.38
64614;BME280;51025;37.772;-122.432;2023-09-19T06:56:59;101051.76;;;23.54;31.35
64614;BME280;51025;37.772;-122.432;2023-09-19T06:59:28;101050.10;;;23.23;31.40
64614;BME280;51025;37.772;-122.432;2023-09-19T07:01:57;101051.19;;;23.91;30.74
64614;BME280;51025;37.772;-122.432;2023-09-19T07:04:25;101056.33;;;23.70;30.83
64614;BME280;51025;37.772;-122.432;2023-09-19T07:06:53;101055.23;;;22.94;31.53
64614;BME280;51025;37.772;-122.432;2023-09-19T07:09:21;101055.64;;;23.33;31.14
64614;BME280;51025;37.772;-122.432;2023-09-19T07:11:49;101051.48;;;23.34;31.48
64614;BME280;51025;37.772;-122.432;2023-09-19T07:14:17;101052.46;;;23.69;30.78
64614;BME280;51025;37.772;-122.432;2023-09-19T07:16:45;101048.77;;;23.49;31.00
64614;BME280;51025;37.772;-122.432;2023-09-19T07:19:13;101045.31;;;23.03;31.35
64614;BME280;51025;37.772;-122.432;2023-09-19T07:21:42;101043.91;;;23.66;31.11
64614;BME280;51025;37.772;-122.432;2023-09-19T07:24:11;101044.88;;;22.42;31.60
64614;BME280;51025;37.772;-122.432;2023-09-19T07:26:39;101047.00;;;23.27;31.41
64614;BME280;51025;37.772;-122.432;2023-09-19T07:29:07;101044.11;;;22.79;31.50
64614;BME280;51025;37.772;-122.432;2023-09-19T07:31:35;101043.86;;;22.58;31.66
64614;BME280;51025;37.772;-122.432;2023-09-19T07:34:03;101040.69;;;22.66;31.58
64614;BME280;51025;37.772;-122.432;2023-09-19T07:36:31;101044.98;;;23.46;31.53
64614;BME280;51025;37.772;-122.432;2023-09-19T07:38:59;101045.25;;;23.13;31.44
64614;BME280;51025;37.772;-122.432;2023-09-19T07:41:28;101046.77;;;23.10;31.43
64614;BME280;51025;37.772;-122.432;2023-09-19T07:43:56;101049.10;;;23.95;31.08
64614;BME280;51025;37.772;-122.432;2023-09-19T07:46:24;101047.19;;;23.29;30.93
64614;BME280;51025;37.772;-122.432;2023-09-19T07:48:52;101046.88;;;22.60;31.56
64614;BME280;51025;37.772;-122.432;2023-09-19T07:51:21;101043.29;;;23.14;31.37
64614;BME280;51025;37.772;-122.432;2023-09-19T07:53:49;101044.68;;;22.63;31.51
64614;BME280;51025;37.772;-122.432;2023-09-19T07:56:17;101045.54;;;22.48;31.66
64614;BME280;51025;37.772;-122.432;2023-09-19T07:58:45;101047.45;;;22.42;31.76
64614;BME280;51025;37.772;-122.432;2023-09-19T08:01:13;101043.41;;;22.85;31.19
64614;BME280;51025;37.772;-122.432;2023-09-19T08:03:42;101043.53;;;22.86;31.19
64614;BME280;51025;37.772;-122.432;2023-09-19T08:06:10;101042.58;;;22.59;31.47
64614;BME280;51025;37.772;-122.432;2023-09-19T08:08:39;101042.46;;;23.13;31.28
64614;BME280;51025;37.772;-122.432;2023-09-19T08:11:07;101042.07;;;22.56;31.52
64614;BME280;51025;37.772;-122.432;2023-09-19T08:13:36;101042.00;;;23.37;31.41
64614;BME280;51025;37.772;-122.432;2023-09-19T08:16:05;101043.47;;;22.41;31.60
64614;BME280;51025;37.772;-122.432;2023-09-19T08:18:33;101041.08;;;23.50;31.27
64614;BME280;51025;37.772;-122.432;2023-09-19T08:21:02;101041.07;;;22.60;31.41
64614;BME280;51025;37.772;-122.432;2023-09-19T08:23:30;101037.08;;;23.13;31.62
64614;BME280;51025;37.772;-122.432;2023-09-19T08:25:58;101036.14;;;22.77;31.58
64614;BME280;51025;37.772;-122.432;2023-09-19T08:28:27;101035.33;;;22.53;31.80
64614;BME280;51025;37.772;-122.432;2023-09-19T08:30:55;101036.20;;;23.10;31.18
64614;BME280;51025;37.772;-122.432;2023-09-19T08:33:23;101033.20;;;22.48;31.49
64614;BME280;51025;37.772;-122.432;2023-09-19T08:35:51;101029.50;;;22.63;31.62
64614;BME280;51025;37.772;-122.432;2023-09-19T08:38:19;101032.47;;;23.30;31.05
64614;BME280;51025;37.772;-122.432;2023-09-19T08:40:47;101033.82;;;23.03;30.90
64614;BME280;51025;37.772;-122.432;2023-09-19T08:43:15;101033.46;;;22.35;31.53
64614;BME280;51025;37.772;-122.432;2023-09-19T08:45:43;101030.54;;;22.82;31.41
64614;BME280;51025;37.772;-122.432;2023-09-19T08:48:22;101023.97;;;22.34;31.56
64614;BME280;51025;37.772;-122.432;2023-09-19T08:50:54;101021.76;;;23.03;31.64
64614;BME280;51025;37.772;-122.432;2023-09-19T08:53:30;101028.82;;;23.02;31.59
64614;BME280;51025;37.772;-122.432;2023-09-19T08:56:01;101030.11;;;22.25;31.63
64614;BME280;51025;37.772;-122.432;2023-09-19T08:58:34;101031.60;;;22.96;31.62
64614;BME280;51025;37.772;-122.432;2023-09-19T09:01:07;101027.18;;;22.26;31.57
64614;BME280;51025;37.772;-122.432;2023-09-19T09:03:38;101025.49;;;23.00;31.57
64614;BME280;51025;37.772;-122.432;2023-09-19T09:06:10;101018.50;;;22.29;31.47
64614;BME280;51025;37.772;-122.432;2023-09-19T09:08:39;101022.71;;;22.23;31.53
64614;BME280;51025;37.772;-122.432;2023-09-19T09:11:07;101023.35;;;22.86;31.70
64614;BME280;51025;37.772;-122.432;2023-09-19T09:13:37;101027.62;;;22.35;31.78
64614;BME280;51025;37.772;-122.432;2023-09-19T09:16:05;101025.77;;;22.20;31.59
64614;BME280;51025;37.772;-122.432;2023-09-19T09:18:33;101019.39;;;23.04;31.45
64614;BME280;51025;37.772;-122.432;2023-09-19T09:21:02;101017.17;;;22.50;31.56
64614;BME280;51025;37.772;-122.432;2023-09-19T09:23:31;101015.05;;;22.38;31.70
64614;BME280;51025;37.772;-122.432;2023-09-19T09:26:01;101015.51;;;22.50;31.56
64614;BME280;51025;37.772;-122.432;2023-09-19T09:28:31;101011.26;;;21.89;31.82
64614;BME280;51025;37.772;-122.432;2023-09-19T09:31:00;101007.34;;;22.72;31.75
64614;BME280;51025;37.772;-122.432;2023-09-19T09:33:29;101006.76;;;22.76;31.67
64614;BME280;51025;37.772;-122.432;2023-09-19T09:35:59;101008.18;;;22.76;31.66
64614;BME280;51025;37.772;-122.432;2023-09-19T09:38:28;101010.11;;;22.72;31.72
64614;BME280;51025;37.772;-122.432;2023-09-19T09:40:58;101008.22;;;22.68;31.76
64614;BME280;51025;37.772;-122.432;2023-09-19T09:43:29;101004.41;;;22.75;31.66
64614;BME280;51025;37.772;-122.432;2023-09-19T09:46:15;101000.24;;;22.96;31.40
64614;BME280;51025;37.772;-122.432;2023-09-19T09:48:44;100994.78;;;22.66;31.72
64614;BME280;51025;37.772;-122.432;2023-09-19T09:51:12;100994.49;;;22.68;31.67
64614;BME280;51025;37.772;-122.432;2023-09-19T09:53:40;100995.29;;;23.04;31.32
64614;BME280;51025;37.772;-122.432;2023-09-19T09:56:09;100997.78;;;22.59;31.76
64614;BME280;51025;37.772;-122.432;2023-09-19T09:58:49;101005.95;;;22.39;31.94
64614;BME280;51025;37.772;-122.432;2023-09-19T10:01:18;101008.08;;;22.33;31.59
64614;BME280;51025;37.772;-122.432;2023-09-19T10:03:47;101008.09;;;23.45;30.95
64614;BME280;51025;37.772;-122.432;2023-09-19T10:06:17;101004.51;;;22.81;31.49
64614;BME280;51025;37.772;-122.432;2023-09-19T10:08:59;100997.82;;;22.65;31.68
64614;BME280;51025;37.772;-122.432;2023-09-19T10:11:28;100999.64;;;22.63;31.70
64614;BME280;51025;37.772;-122.432;2023-09-19T10:13:56;100999.76;;;22.65;31.67
64614;BME280;51025;37.772;-122.432;2023-09-19T10:16:25;101000.18;;;21.76;31.78
64614;BME280;51025;37.772;-122.432;2023-09-19T10:18:54;100998.51;;;21.84;32.10
64614;BME280;51025;37.772;-122.432;2023-09-19T10:21:24;100990.01;;;22.35;31.96
64614;BME280;51025;37.772;-122.432;2023-09-19T10:23:53;100988.79;;;22.32;32.02
64614;BME280;51025;37.772;-122.432;2023-09-19T10:26:22;100986.74;;;22.23;32.08
64614;BME280;51025;37.772;-122.432;2023-09-19T10:28:52;100988.57;;;22.30;32.01
64614;BME280;51025;37.772;-122.432;2023-09-19T10:31:21;100988.72;;;22.30;31.97
64614;BME280;51025;37.772;-122.432;2023-09-19T10:33:50;100981.58;;;22.39;31.86
64614;BME280;51025;37.772;-122.432;2023-09-19T10:36:19;100982.25;;;22.40;31.89
64614;BME280;51025;37.772;-122.432;2023-09-19T10:38:48;100976.69;;;22.43;31.83
64614;BME280;51025;37.772;-122.432;2023-09-19T10:41:20;100974.38;;;22.71;31.62
64614;BME280;51025;37.772;-122.432;2023-09-19T10:43:49;100973.04;;;22.88;31.47
64614;BME280;51025;37.772;-122.432;2023-09-19T10:46:19;100973.27;;;22.95;31.28
64614;BME280;51025;37.772;-122.432;2023-09-19T10:48:47;100972.53;;;22.55;31.67
64614;BME280;51025;37.772;-122.432;2023-09-19T10:51:21;100972.04;;;22.51;31.72
64614;BME280;51025;37.772;-122.432;2023-09-19T10:53:52;100969.46;;;22.36;31.88
64614;BME280;51025;37.772;-122.432;2023-09-19T10:56:29;100970.17;;;22.45;31.78
64614;BME280;51025;37.772;-122.432;2023-09-19T10:59:10;100968.28;;;22.82;31.76
64614;BME280;51025;37.772;-122.432;2023-09-19T11:01:43;100968.36;;;22.65;31.58
64614;BME280;51025;37.772;-122.432;2023-09-19T11:04:29;100969.40;;;22.48;31.74
64614;BME280;51025;37.772;-122.432;2023-09-19T11:07:03;100972.31;;;22.47;31.74
64614;BME280;51025;37.772;-122.432;2023-09-19T11:09:48;100968.22;;;22.21;32.03
64614;BME280;51025;37.772;-122.432;2023-09-19T11:12:49;100969.32;;;22.15;32.08
64614;BME280;51025;37.772;-122.432;2023-09-19T11:16:22;100965.63;;;22.20;32.02
64614;BME280;51025;37.772;-122.432;2023-09-19T11:18:55;100960.31;;;22.31;31.92
64614;BME280;51025;37.772;-122.432;2023-09-19T11:21:52;100960.15;;;22.14;32.09
64614;BME280;51025;37.772;-122.432;2023-09-19T11:24:36;100956.59;;;22.63;31.94
64614;BME280;51025;37.772;-122.432;2023-09-19T11:27:20;100954.92;;;22.11;32.17
64614;BME280;51025;37.772;-122.432;2023-09-19T11:29:48;100952.80;;;22.46;32.17
64614;BME280;51025;37.772;-122.432;2023-09-19T11:33:17;100948.08;;;22.26;31.98
64614;BME280;51025;37.772;-122.432;2023-09-19T11:36:04;100946.73;;;22.61;31.93
64614;BME280;51025;37.772;-122.432;2023-09-19T11:39:05;100941.92;;;22.23;31.96
64614;BME280;51025;37.772;-122.432;2023-09-19T11:41:41;100944.34;;;22.13;32.13
64614;BME280;51025;37.772;-122.432;2023-09-19T11:44:41;100943.17;;;22.28;31.86
64614;BME280;51025;37.772;-122.432;2023-09-19T11:47:11;100943.18;;;22.17;31.98
64614;BME280;51025;37.772;-122.432;2023-09-19T11:49:41;100945.30;;;22.82;32.11
64614;BME280;51025;37.772;-122.432;2023-09-19T11:52:10;100946.09;;;22.40;31.78
64614;BME280;51025;37.772;-122.432;2023-09-19T11:54:40;100945.75;;;22.18;31.94
64614;BME280;51025;37.772;-122.432;2023-09-19T11:57:10;100947.39;;;22.07;32.05
64614;BME280;51025;37.772;-122.432;2023-09-19T11:59:40;100950.89;;;22.22;32.29
64614;BME280;51025;37.772;-122.432;2023-09-19T12:02:08;100951.67;;;22.06;32.02
64614;BME280;51025;37.772;-122.432;2023-09-19T12:04:40;100952.28;;;22.43;32.02
64614;BME280;51025;37.772;-122.432;2023-09-19T12:07:10;100951.60;;;22.03;32.05
64614;BME280;51025;37.772;-122.432;2023-09-19T12:09:41;100949.76;;;22.31;32.14
64614;BME280;51025;37.772;-122.432;2023-09-19T12:12:09;100949.43;;;22.24;31.84
64614;BME280;51025;37.772;-122.432;2023-09-19T12:14:39;100951.11;;;22.60;31.79
64614;BME280;51025;37.772;-122.432;2023-09-19T12:17:07;100951.99;;;22.14;31.90
64614;BME280;51025;37.772;-122.432;2023-09-19T12:19:35;100954.50;;;22.38;31.99
64614;BME280;51025;37.772;-122.432;2023-09-19T12:22:04;100955.44;;;21.91;32.13
64614;BME280;51025;37.772;-122.432;2023-09-19T12:24:32;100955.53;;;21.79;32.26
64614;BME280;51025;37.772;-122.432;2023-09-19T12:27:03;100954.67;;;22.40;32.00
64614;BME280;51025;37.772;-122.432;2023-09-19T12:29:32;100955.78;;;22.16;32.21
64614;BME280;51025;37.772;-122.432;2023-09-19T12:32:09;100956.30;;;21.85;32.17
64614;BME280;51025;37.772;-122.432;2023-09-19T12:34:38;100951.83;;;22.10;31.89
64614;BME280;51025;37.772;-122.432;2023-09-19T12:37:07;100952.70;;;22.21;32.09
64614;BME280;51025;37.772;-122.432;2023-09-19T12:39:36;100953.87;;;21.92;32.04